Time;durP1;ratioP1;P1;durP2;ratioP2;P2;SDS_P1;SDS_P2;PMS_P1;PMS_P2;Temp;Humidity;BMP_temperature;BMP_pressure;BME280_temperature;BME280_humidity;BME280_pressure;Samples;Min_cycle;Max_cycle;Signal;HPM_P1;HPM_P2
2023/09/24 00:01:59;;;;;;;27.27;4.72;;;;;;;21.20;49.94;93770.28;5084990;28;20330;-80
2023/09/24 00:04:25;;;;;;;25.92;7.13;;;;;;;21.27;49.54;93776.88;5083294;28;20675;-80
2023/09/24 00:06:51;;;;;;;32.88;6.30;;;;;;;21.27;49.86;93777.69;5084594;28;20217;-80
2023/09/24 00:09:16;;;;;;;32.90;5.15;;;;;;;21.28;50.25;93773.03;5083513;28;20024;-80
2023/09/24 00:11:41;;;;;;;26.80;5.38;;;;;;;21.32;49.55;93774.56;5084617;28;20024;-80
2023/09/24 00:14:07;;;;;;;30.88;5.63;;;;;;;21.32;50.64;93769.16;5063600;28;20052;-80
2023/09/24 00:16:32;;;;;;;29.83;6.93;;;;;;;21.29;51.68;93769.94;5065008;28;20017;-80
2023/09/24 00:18:58;;;;;;;37.10;6.57;;;;;;;21.21;51.58;93768.38;5064897;28;20021;-80
2023/09/24 00:21:24;;;;;;;40.00;6.30;;;;;;;21.23;51.62;93774.94;5064726;28;20341;-80
2023/09/24 00:23:50;;;;;;;40.38;6.90;;;;;;;21.24;50.62;93778.44;5064754;28;20040;-79
2023/09/24 00:26:15;;;;;;;32.30;5.63;;;;;;;21.20;51.07;93773.00;5064398;28;20055;-80
2023/09/24 00:28:41;;;;;;;31.85;6.63;;;;;;;21.20;51.44;93767.56;5064729;28;20362;-80
2023/09/24 00:31:08;;;;;;;33.70;5.28;;;;;;;21.19;51.33;93778.81;5064762;28;20490;-80
2023/09/24 00:33:33;;;;;;;27.27;5.85;;;;;;;21.16;50.72;93776.84;5063390;28;20212;-80
2023/09/24 00:35:59;;;;;;;28.60;5.85;;;;;;;21.12;50.92;93793.09;5079971;28;20021;-80
2023/09/24 00:38:24;;;;;;;35.67;6.40;;;;;;;20.95;51.53;93794.59;5064443;28;20357;-80
2023/09/24 00:40:50;;;;;;;34.13;6.00;;;;;;;20.93;51.75;93791.47;5064309;28;20025;-79
2023/09/24 00:43:32;;;;;;;45.30;6.00;;;;;;;20.91;51.53;93788.38;5064870;28;20041;-79
2023/09/24 00:45:59;;;;;;;39.28;5.75;;;;;;;20.96;51.63;93789.94;5064411;28;20075;-80
2023/09/24 00:48:27;;;;;;;26.67;6.10;;;;;;;20.98;51.13;93785.69;5064010;28;20254;-79
2023/09/24 00:50:57;;;;;;;31.30;7.55;;;;;;;20.98;51.81;93788.38;5064332;28;20086;-80
2023/09/24 00:53:30;;;;;;;33.58;5.40;;;;;;;21.01;51.63;93779.50;5064236;28;20029;-80
2023/09/24 00:55:56;;;;;;;33.42;5.40;;;;;;;20.99;51.52;93779.13;5064234;28;20070;-80
2023/09/24 00:58:26;;;;;;;26.00;4.40;;;;;;;21.01;51.83;93782.22;5079513;28;20031;-79
2023/09/24 01:00:57;;;;;;;42.55;6.97;;;;;;;21.04;51.86;93767.94;5064272;28;20025;-79
2023/09/24 01:03:22;;;;;;;28.20;4.55;;;;;;;21.05;52.92;93766.00;5063986;28;20345;-79
2023/09/24 01:05:49;;;;;;;32.90;5.70;;;;;;;20.96;53.26;93762.84;5063948;28;20017;-80
2023/09/24 01:08:17;;;;;;;26.90;4.65;;;;;;;20.90;53.93;93775.97;5062672;28;20032;-80
2023/09/24 01:10:47;;;;;;;19.48;4.57;;;;;;;20.83;53.36;93760.47;5062775;28;20028;-80
2023/09/24 01:13:19;;;;;;;40.08;5.68;;;;;;;20.78;53.72;93760.84;5068265;28;20047;-80
2023/09/24 01:15:49;;;;;;;27.63;5.45;;;;;;;20.75;54.96;93755.41;5083919;28;20032;-80
2023/09/24 01:18:15;;;;;;;37.42;6.82;;;;;;;20.71;55.23;93760.81;5083886;28;20036;-80
2023/09/24 01:20:42;;;;;;;32.42;8.25;;;;;;;20.67;55.01;93757.31;5083634;28;20101;-80
2023/09/24 01:23:12;;;;;;;32.35;6.65;;;;;;;20.60;55.38;93762.69;5083647;28;20238;-80
2023/09/24 01:25:40;;;;;;;30.00;5.47;;;;;;;20.54;56.08;93764.94;5065795;28;20260;-80
2023/09/24 01:28:06;;;;;;;23.40;4.55;;;;;;;20.53;56.70;93752.56;5065571;28;20353;-80
2023/09/24 01:30:32;;;;;;;33.88;5.38;;;;;;;20.45;56.97;93745.53;5083721;28;20028;-80
2023/09/24 01:32:58;;;;;;;26.30;4.78;;;;;;;20.36;57.05;93735.06;5083427;28;20047;-80
2023/09/24 01:35:27;;;;;;;31.20;5.47;;;;;;;20.31;57.34;93735.41;5083461;28;20318;-80
2023/09/24 01:37:59;;;;;;;29.25;5.70;;;;;;;20.26;57.69;93745.84;5082699;28;20062;-80
2023/09/24 01:40:32;;;;;;;33.70;5.22;;;;;;;20.23;57.56;93742.72;5083262;28;20024;-80
2023/09/24 01:42:58;;;;;;;27.20;6.53;;;;;;;20.21;57.05;93739.63;5083259;28;20025;-80
2023/09/24 01:45:26;;;;;;;33.30;5.50;;;;;;;20.20;57.29;93743.47;5083122;28;20017;-80
2023/09/24 01:47:52;;;;;;;33.22;6.20;;;;;;;20.21;57.65;93728.81;5083231;28;20081;-80
2023/09/24 01:50:17;;;;;;;21.15;5.82;;;;;;;20.17;57.73;93736.13;5083338;28;20326;-80
2023/09/24 01:52:45;;;;;;;19.98;5.13;;;;;;;20.17;57.46;93733.41;5083209;28;20040;-80
2023/09/24 01:55:13;;;;;;;31.42;5.70;;;;;;;20.14;57.83;93734.16;5081984;28;20020;-80
2023/09/24 01:57:41;;;;;;;26.40;4.70;;;;;;;20.14;57.48;93731.44;5083005;28;20322;-80
2023/09/24 02:00:42;;;;;;;26.77;6.13;;;;;;;20.18;57.57;93737.66;5082974;28;20020;-80
2023/09/24 02:03:05;;;;;;;26.48;4.97;;;;;;;20.17;57.76;93724.50;5080920;28;20024;-80
2023/09/24 02:05:34;;;;;;;24.65;5.22;;;;;;;20.19;57.95;93724.91;5082865;28;20028;-80
2023/09/24 02:08:10;;;;;;;40.58;5.35;;;;;;;20.19;58.00;93725.69;5082951;28;20017;-80
2023/09/24 02:10:40;;;;;;;27.55;5.63;;;;;;;20.19;57.85;93724.91;5082934;28;20036;-80
2023/09/24 02:13:06;;;;;;;27.85;5.63;;;;;;;20.18;57.92;93726.84;5082722;28;20024;-80
2023/09/24 02:15:32;;;;;;;32.22;5.75;;;;;;;20.23;57.76;93734.63;5082692;28;20026;-80
2023/09/24 02:17:57;;;;;;;33.13;5.30;;;;;;;20.16;58.17;93739.97;5082703;28;20252;-80
2023/09/24 02:20:24;;;;;;;28.88;5.15;;;;;;;20.17;57.91;93725.28;5082675;28;20016;-80
2023/09/24 02:22:58;;;;;;;27.98;5.47;;;;;;;20.25;58.10;93726.09;5082538;28;20073;-80
2023/09/24 02:25:31;;;;;;;22.35;4.75;;;;;;;20.20;57.79;93729.94;5064636;28;20311;-80
2023/09/24 02:27:58;;;;;;;27.40;4.72;;;;;;;20.21;57.94;93739.63;5082369;28;20031;-80
2023/09/24 02:30:27;;;;;;;21.33;5.07;;;;;;;20.21;57.67;93728.00;5082454;28;20195;-80
2023/09/24 02:32:52;;;;;;;16.38;5.80;;;;;;;20.24;57.49;93733.44;5082485;28;20055;-80
2023/09/24 02:35:18;;;;;;;26.30;5.35;;;;;;;20.22;57.47;93726.88;5082566;28;20024;-80
2023/09/24 02:37:45;;;;;;;29.55;4.55;;;;;;;20.24;58.17;93724.56;5082615;28;20031;-80
2023/09/24 02:40:17;;;;;;;32.08;5.80;;;;;;;20.22;58.49;93732.28;5064417;28;20016;-80
2023/09/24 02:42:45;;;;;;;;;;;;;;;20.20;58.81;93740.75;5083086;28;20055;-80
2023/09/24 02:45:11;;;;;;;19.67;4.30;;;;;;;20.11;58.11;93737.63;5082501;28;20102;-80
2023/09/24 02:47:37;;;;;;;25.42;5.30;;;;;;;20.11;57.05;93748.44;5082591;28;20091;-80
2023/09/24 02:50:12;;;;;;;30.48;5.50;;;;;;;20.11;57.17;93748.44;5084031;28;20042;-80
2023/09/24 02:52:38;;;;;;;25.90;5.07;;;;;;;20.10;57.89;93743.41;5086559;28;20327;-80
2023/09/24 02:55:04;;;;;;;24.05;5.20;;;;;;;20.09;56.70;93737.22;5068585;28;20020;-80
2023/09/24 02:57:29;;;;;;;25.17;6.78;;;;;;;20.05;57.49;93733.72;5068510;28;20096;-80
2023/09/24 02:59:58;;;;;;;35.55;6.15;;;;;;;20.07;57.68;93744.94;5086532;28;20036;-80
2023/09/24 03:02:23;;;;;;;24.58;4.85;;;;;;;20.08;58.07;93743.00;5086462;28;20027;-80
2023/09/24 03:04:50;;;;;;;26.15;5.07;;;;;;;20.01;58.14;93741.81;5086362;28;20020;-80
2023/09/24 03:07:15;;;;;;;20.25;4.93;;;;;;;19.98;58.69;93731.72;5086239;28;20066;-80
2023/09/24 03:09:41;;;;;;;28.42;6.22;;;;;;;19.97;58.70;93743.69;5086209;28;20222;-80
2023/09/24 03:12:07;;;;;;;17.70;3.88;;;;;;;19.95;59.39;93732.47;5086271;28;20025;-80
2023/09/24 03:14:33;;;;;;;28.63;5.25;;;;;;;19.89;59.78;93742.09;5086069;28;20063;-80
2023/09/24 03:16:59;;;;;;;38.35;4.78;;;;;;;19.83;59.14;93741.66;5086068;28;20028;-80
2023/09/24 03:19:24;;;;;;;26.88;4.82;;;;;;;19.80;59.29;93739.72;5085993;28;20039;-80
2023/09/24 03:21:50;;;;;;;26.67;5.35;;;;;;;19.77;60.29;93745.88;5086147;28;20091;-80
2023/09/24 03:24:16;;;;;;;13.60;4.30;;;;;;;19.73;59.97;93744.28;5086099;28;20020;-80
2023/09/24 03:26:42;;;;;;;23.10;5.25;;;;;;;19.70;59.58;93745.78;5085870;28;20223;-80
2023/09/24 03:29:07;;;;;;;19.52;6.05;;;;;;;19.73;58.85;93747.00;5085899;28;20032;-80
2023/09/24 03:31:33;;;;;;;35.42;6.70;;;;;;;19.72;58.84;93743.53;5085663;28;20058;-80
2023/09/24 03:33:59;;;;;;;23.35;5.45;;;;;;;19.70;59.22;93745.00;5068024;28;20029;-80
2023/09/24 03:36:24;;;;;;;24.50;6.22;;;;;;;19.74;59.27;93752.03;5068059;28;20016;-80
2023/09/24 03:38:50;;;;;;;29.17;6.20;;;;;;;19.70;59.10;93748.50;5085573;28;20039;-80
2023/09/24 03:41:15;;;;;;;27.95;4.95;;;;;;;19.63;59.29;93743.78;5085857;28;20016;-80
2023/09/24 03:43:42;;;;;;;30.92;5.43;;;;;;;19.67;60.21;93743.03;5085740;28;20078;-80
2023/09/24 03:46:09;;;;;;;21.98;4.93;;;;;;;19.58;60.59;93746.84;5085501;28;20028;-80
2023/09/24 03:48:35;;;;;;;25.65;5.22;;;;;;;19.56;60.61;93742.94;5085228;28;20043;-80
2023/09/24 03:51:01;;;;;;;29.80;5.32;;;;;;;19.51;60.89;93751.41;5085502;28;20020;-80
2023/09/24 03:53:26;;;;;;;30.70;5.53;;;;;;;19.49;60.96;93756.41;5085559;28;20087;-80
2023/09/24 03:55:53;;;;;;;27.13;5.75;;;;;;;19.48;60.53;93765.63;5085512;28;20073;-80
2023/09/24 03:58:18;;;;;;;26.33;5.25;;;;;;;19.44;60.11;93754.81;5085340;28;20017;-80
2023/09/24 04:00:44;;;;;;;17.85;4.40;;;;;;;19.49;59.83;93759.09;5085020;28;20093;-80
2023/09/24 04:03:09;;;;;;;28.92;5.78;;;;;;;19.51;59.71;93762.22;5067020;28;20020;-80
2023/09/24 04:05:35;;;;;;;31.60;5.28;;;;;;;19.48;60.40;93762.94;5085298;28;20311;-80
2023/09/24 04:08:03;;;;;;;23.98;5.43;;;;;;;19.32;60.65;93769.38;5084984;28;20021;-80
2023/09/24 04:10:29;;;;;;;27.40;4.97;;;;;;;19.23;61.14;93763.47;5085161;28;20087;-80
2023/09/24 04:12:55;;;;;;;27.60;5.25;;;;;;;19.16;61.48;93755.31;5085012;28;20024;-80
2023/09/24 04:15:27;;;;;;;24.48;5.68;;;;;;;19.11;61.54;93767.22;5085008;28;20376;-79
2023/09/24 04:17:52;;;;;;;;;;;;;;;19.12;62.00;93773.41;5085561;28;20215;-80
2023/09/24 04:20:20;;;;;;;23.75;5.20;;;;;;;19.02;62.81;93789.09;5084975;28;19904;-80
2023/09/24 04:22:45;;;;;;;23.30;6.00;;;;;;;18.92;62.90;93797.06;5085101;28;20103;-80
2023/09/24 04:25:17;;;;;;;20.40;4.75;;;;;;;18.78;62.80;93811.91;5084552;28;20078;-80
2023/09/24 04:27:42;;;;;;;33.95;6.85;;;;;;;18.72;63.30;93818.78;5084974;28;20020;-80
2023/09/24 04:30:15;;;;;;;27.50;4.75;;;;;;;18.63;64.01;93816.34;5084786;28;20020;-80
2023/09/24 04:32:41;;;;;;;33.22;4.97;;;;;;;18.54;64.09;93828.53;5084710;28;20034;-80
2023/09/24 04:35:07;;;;;;;27.67;5.30;;;;;;;18.42;64.83;93832.25;5084610;28;20024;-80
2023/09/24 04:37:33;;;;;;;27.13;6.07;;;;;;;18.42;64.96;93837.66;5084500;28;20020;-79
2023/09/24 04:39:58;;;;;;;39.17;6.60;;;;;;;18.39;65.28;93830.28;5084565;28;20031;-79
2023/09/24 04:42:24;;;;;;;26.55;5.68;;;;;;;18.40;65.32;93826.44;5084618;28;20245;-80
2023/09/24 04:44:49;;;;;;;26.50;6.10;;;;;;;18.49;65.61;93826.19;5084323;28;20204;-79
2023/09/24 04:47:15;;;;;;;25.83;5.82;;;;;;;18.58;65.29;93835.56;5084551;28;20028;-79
2023/09/24 04:49:40;;;;;;;19.35;5.65;;;;;;;18.60;65.33;93833.28;5084353;28;20081;-79
2023/09/24 04:52:05;;;;;;;20.83;5.03;;;;;;;18.67;64.96;93824.50;5084307;28;20028;-79
2023/09/24 04:54:31;;;;;;;30.55;5.70;;;;;;;18.78;65.19;93832.75;5084124;28;20120;-79
2023/09/24 04:56:56;;;;;;;15.80;5.53;;;;;;;18.83;64.67;93830.53;5084236;28;20280;-79
2023/09/24 04:59:22;;;;;;;28.88;5.78;;;;;;;18.90;64.33;93824.44;5066347;28;20087;-79
2023/09/24 05:01:47;;;;;;;22.67;5.03;;;;;;;19.01;63.96;93835.38;5084148;28;20051;-79
2023/09/24 05:04:12;;;;;;;24.15;6.80;;;;;;;19.09;63.95;93833.53;5084061;28;20029;-80
2023/09/24 05:06:38;;;;;;;16.88;5.53;;;;;;;19.13;63.46;93831.66;5084070;28;20020;-80
2023/09/24 05:09:03;;;;;;;24.90;6.03;;;;;;;19.20;63.10;93829.84;5066176;28;20028;-79
2023/09/24 05:11:29;;;;;;;20.35;5.43;;;;;;;19.24;62.92;93829.88;5083983;28;20028;-79
2023/09/24 05:13:54;;;;;;;30.65;5.00;;;;;;;19.35;63.15;93838.09;5065591;28;20093;-79
2023/09/24 05:16:21;;;;;;;31.27;5.80;;;;;;;19.35;63.28;93819.19;5083899;28;20038;-79
2023/09/24 05:18:47;;;;;;;36.28;6.68;;;;;;;19.37;63.42;93820.34;5084104;28;20013;-80
2023/09/24 05:21:17;;;;;;;23.33;5.30;;;;;;;19.55;63.20;93830.59;5066306;28;20051;-79
2023/09/24 05:23:43;;;;;;;19.30;4.53;;;;;;;19.62;63.21;93822.53;5083988;28;20100;-80
2023/09/24 05:26:13;;;;;;;27.77;5.80;;;;;;;19.64;63.23;93825.66;5083685;28;20024;-79
2023/09/24 05:28:39;;;;;;;27.02;6.07;;;;;;;19.75;62.85;93826.59;5083488;28;20090;-79
2023/09/24 05:31:04;;;;;;;26.30;6.38;;;;;;;19.81;62.68;93835.91;5083597;28;20287;-79
2023/09/24 05:33:30;;;;;;;23.48;6.90;;;;;;;19.83;62.43;93830.91;5065718;28;20021;-79
2023/09/24 05:35:55;;;;;;;17.70;6.10;;;;;;;19.90;62.76;93840.25;5083643;28;20020;-80
2023/09/24 05:38:21;;;;;;;38.53;5.50;;;;;;;19.96;62.40;93846.84;5083336;28;20063;-80
2023/09/24 05:40:47;;;;;;;41.08;5.75;;;;;;;20.01;62.20;93841.91;5083513;28;20024;-80
2023/09/24 05:43:13;;;;;;;27.02;6.80;;;;;;;20.11;63.08;93845.06;5065637;28;20255;-80
2023/09/24 05:45:51;;;;;;;30.35;5.93;;;;;;;20.14;62.56;93844.31;5083406;28;20020;-79
2023/09/24 05:48:18;;;;;;;30.10;5.57;;;;;;;20.19;61.49;93842.06;5083405;28;20024;-80
2023/09/24 05:50:45;;;;;;;27.92;6.57;;;;;;;20.21;61.26;93849.78;5083337;28;20215;-79
2023/09/24 05:53:15;;;;;;;35.22;6.80;;;;;;;20.28;61.25;93849.06;5083012;28;20043;-80
2023/09/24 05:55:50;;;;;;;22.92;6.05;;;;;;;20.33;61.37;93840.59;5083310;28;20027;-80
2023/09/24 05:58:15;;;;;;;22.27;5.70;;;;;;;20.40;61.38;93851.47;5065546;28;20025;-79
2023/09/24 06:00:45;;;;;;;34.35;6.75;;;;;;;20.46;60.92;93854.63;5082957;28;20295;-79
2023/09/24 06:03:13;;;;;;;29.67;6.30;;;;;;;20.54;60.27;93861.66;5082882;28;20025;-80
2023/09/24 06:05:39;;;;;;;26.38;4.85;;;;;;;20.62;60.05;93855.16;5083036;28;20032;-80
2023/09/24 06:08:05;;;;;;;23.63;5.10;;;;;;;20.62;59.35;93855.94;5082918;28;20230;-79
2023/09/24 06:10:31;;;;;;;29.52;6.35;;;;;;;20.71;59.11;93863.72;5083085;28;20074;-80
2023/09/24 06:12:56;;;;;;;23.80;6.57;;;;;;;20.68;59.51;93861.78;5082915;28;20257;-80
2023/09/24 06:15:22;;;;;;;25.13;6.00;;;;;;;20.69;60.04;93862.53;5082789;28;20065;-79
2023/09/24 06:17:49;;;;;;;27.77;6.25;;;;;;;20.77;60.29;93869.56;5082770;28;20022;-80
2023/09/24 06:20:16;;;;;;;28.23;5.60;;;;;;;20.81;60.16;93856.81;5083230;28;20231;-80
2023/09/24 06:22:42;;;;;;;32.85;6.32;;;;;;;20.84;59.77;93851.44;5082783;28;20024;-80
2023/09/24 06:25:08;;;;;;;24.15;4.72;;;;;;;20.94;59.75;93858.03;5082410;28;20100;-80
2023/09/24 06:27:33;;;;;;;25.13;4.47;;;;;;;21.03;59.49;93853.06;5082655;28;20024;-80
2023/09/24 06:29:59;;;;;;;29.02;5.55;;;;;;;21.06;58.83;93845.34;5082855;28;20272;-80
2023/09/24 06:32:28;;;;;;;22.70;4.65;;;;;;;21.11;58.94;93845.75;5082826;28;20358;-79
2023/09/24 06:34:54;;;;;;;21.13;4.63;;;;;;;21.19;58.21;93849.28;5082793;28;20031;-79
2023/09/24 06:37:20;;;;;;;21.90;5.70;;;;;;;21.20;58.42;93838.03;5082591;28;20020;-79
2023/09/24 06:39:45;;;;;;;26.45;5.97;;;;;;;21.27;58.65;93860.91;5082904;28;20087;-80
2023/09/24 06:42:11;;;;;;;21.05;5.35;;;;;;;21.37;57.87;93852.84;5082820;28;20024;-80
2023/09/24 06:44:36;;;;;;;24.80;5.82;;;;;;;21.39;58.37;93845.09;5064571;28;20025;-80
2023/09/24 06:47:02;;;;;;;28.45;6.43;;;;;;;21.48;58.77;93852.13;5082593;28;20048;-79
2023/09/24 06:49:28;;;;;;;39.55;6.00;;;;;;;21.53;59.00;93851.75;5082535;28;20032;-80
2023/09/24 06:51:53;;;;;;;21.50;5.13;;;;;;;21.62;58.67;93849.47;5064832;28;20382;-79
2023/09/24 06:54:20;;;;;;;22.90;4.93;;;;;;;21.72;58.56;93856.84;5082636;28;20017;-80
2023/09/24 06:56:45;;;;;;;17.40;4.30;;;;;;;21.85;57.82;93857.25;5082523;28;20024;-80
2023/09/24 06:59:11;;;;;;;17.17;5.60;;;;;;;21.90;57.64;93850.66;5082268;28;20069;-79
2023/09/24 07:01:37;;;;;;;21.67;4.78;;;;;;;21.96;57.22;93854.56;5082456;28;20012;-79
2023/09/24 07:04:04;;;;;;;20.83;6.05;;;;;;;22.08;56.89;93854.19;5082452;28;20021;-80
2023/09/24 07:06:30;;;;;;;26.23;5.53;;;;;;;22.19;56.89;93849.53;5082464;28;20222;-80
2023/09/24 07:08:56;;;;;;;28.52;5.90;;;;;;;22.33;56.85;93846.09;5081166;28;20142;-80
2023/09/24 07:11:28;;;;;;;32.78;6.55;;;;;;;22.44;56.46;93846.09;5082541;28;20020;-80
2023/09/24 07:13:54;;;;;;;21.13;5.13;;;;;;;22.55;56.34;93852.28;5082381;28;20107;-80
2023/09/24 07:16:24;;;;;;;16.55;4.45;;;;;;;22.68;55.97;93849.19;5082372;28;20133;-80
2023/09/24 07:18:50;;;;;;;26.63;6.68;;;;;;;22.76;55.76;93854.19;5082325;28;20019;-79
2023/09/24 07:21:28;;;;;;;28.15;5.35;;;;;;;22.89;55.16;93853.78;5082611;28;20040;-80
2023/09/24 07:23:54;;;;;;;33.13;6.15;;;;;;;22.95;54.59;93850.28;5082345;28;20016;-80
2023/09/24 07:26:20;;;;;;;28.00;6.07;;;;;;;23.06;54.19;93847.56;5082087;28;20036;-80
2023/09/24 07:28:54;;;;;;;24.42;5.25;;;;;;;23.14;54.42;93853.75;5064485;28;20031;-79
2023/09/24 07:31:25;;;;;;;26.63;5.68;;;;;;;23.27;54.40;93851.41;5082157;28;20047;-80
2023/09/24 07:33:54;;;;;;;32.45;5.45;;;;;;;23.38;54.04;93855.59;5081955;28;20016;-80
2023/09/24 07:36:20;;;;;;;20.13;5.22;;;;;;;23.41;53.98;93862.97;5082682;28;20024;-80
2023/09/24 07:38:46;;;;;;;27.65;5.93;;;;;;;23.52;53.34;93852.06;5085978;28;20019;-80
2023/09/24 07:41:12;;;;;;;26.80;5.88;;;;;;;23.43;53.37;93849.75;5085652;28;20088;-80
2023/09/24 07:43:39;;;;;;;26.80;7.03;;;;;;;23.57;53.61;93848.13;5085475;28;20086;-79
2023/09/24 07:46:05;;;;;;;24.88;5.15;;;;;;;23.67;53.34;93852.78;5085676;28;20204;-80
2023/09/24 07:48:31;;;;;;;19.55;6.32;;;;;;;23.73;53.08;93853.91;5067713;28;20246;-80
2023/09/24 07:50:58;;;;;;;30.58;6.32;;;;;;;23.74;53.30;93847.28;5085615;28;20017;-80
2023/09/24 07:53:24;;;;;;;21.02;5.22;;;;;;;23.70;53.76;93846.53;5085311;28;20016;-80
2023/09/24 07:55:56;;;;;;;30.35;6.05;;;;;;;23.77;53.97;93854.69;5085467;28;20106;-80
2023/09/24 07:58:23;;;;;;;24.90;6.40;;;;;;;23.91;53.36;93851.09;5085342;28;20139;-80
2023/09/24 08:00:49;;;;;;;37.95;6.35;;;;;;;24.02;53.87;93851.81;5085237;28;20207;-80
2023/09/24 08:03:14;;;;;;;34.83;7.22;;;;;;;24.11;54.04;93840.47;5085251;28;20016;-80
2023/09/24 08:05:41;;;;;;;29.83;7.75;;;;;;;24.24;53.71;93835.31;5085326;28;20020;-80
2023/09/24 08:08:06;;;;;;;36.03;6.95;;;;;;;24.37;53.67;93833.66;5067574;28;20047;-80
2023/09/24 08:10:31;;;;;;;17.27;5.38;;;;;;;24.52;52.50;93837.06;5069319;28;20357;-80
2023/09/24 08:12:57;;;;;;;34.03;5.80;;;;;;;24.66;52.28;93836.16;5084928;28;20088;-80
2023/09/24 08:15:22;;;;;;;26.73;6.28;;;;;;;24.82;50.62;93836.41;5067320;28;20028;-80
2023/09/24 08:17:48;;;;;;;29.65;6.85;;;;;;;24.92;50.52;93829.28;5084879;28;20203;-80
2023/09/24 08:20:13;;;;;;;19.15;5.53;;;;;;;25.10;49.75;93822.88;5085221;28;20330;-80
2023/09/24 08:22:39;;;;;;;23.90;6.25;;;;;;;25.29;49.42;93818.78;5084812;28;20311;-80
2023/09/24 08:25:05;;;;;;;23.42;6.25;;;;;;;25.49;49.44;93818.94;5067138;28;20180;-80
2023/09/24 08:27:31;;;;;;;27.35;5.53;;;;;;;25.68;48.67;93809.31;5084630;28;20016;-80
2023/09/24 08:29:56;;;;;;;28.33;5.35;;;;;;;25.84;47.55;93804.03;5084766;28;20058;-80
2023/09/24 08:32:23;;;;;;;30.33;5.30;;;;;;;25.96;46.72;93806.22;5084577;28;20016;-80
2023/09/24 08:34:49;;;;;;;23.67;5.85;;;;;;;26.05;46.33;93813.13;5084800;28;20307;-81
2023/09/24 08:37:14;;;;;;;18.08;5.10;;;;;;;26.13;46.35;93807.13;5084757;28;20082;-80
2023/09/24 08:39:40;;;;;;;24.55;5.13;;;;;;;26.30;44.96;93799.09;5084646;28;20046;-80
2023/09/24 08:42:09;;;;;;;25.45;5.70;;;;;;;26.33;44.78;93801.75;5084264;28;20016;-80
2023/09/24 08:44:39;;;;;;;30.50;6.65;;;;;;;26.37;44.66;93807.16;5066565;28;20058;-81
2023/09/24 08:47:05;;;;;;;25.20;5.43;;;;;;;26.50;44.21;93797.19;5065897;28;20327;-81
2023/09/24 08:49:30;;;;;;;42.55;6.35;;;;;;;26.57;43.94;93804.47;5084267;28;20023;-80
2023/09/24 08:51:56;;;;;;;23.75;5.82;;;;;;;26.64;43.58;93798.16;5084065;28;20020;-80
2023/09/24 08:54:22;;;;;;;32.53;5.55;;;;;;;26.64;42.91;93790.72;5066285;28;20027;-80
2023/09/24 08:56:48;;;;;;;28.85;5.97;;;;;;;26.71;43.27;93793.31;5084200;28;20307;-81
2023/09/24 08:59:13;;;;;;;28.10;6.25;;;;;;;26.74;43.55;93797.94;5084328;28;20020;-80
2023/09/24 09:01:38;;;;;;;27.38;6.30;;;;;;;26.77;43.07;93790.88;5084166;28;20020;-80
2023/09/24 09:04:04;;;;;;;31.60;5.85;;;;;;;26.82;42.19;93795.84;5065985;28;20024;-80
2023/09/24 09:06:35;;;;;;;40.60;7.28;;;;;;;26.80;41.98;93792.78;5066255;28;20024;-80
2023/09/24 09:09:00;;;;;;;23.17;5.53;;;;;;;26.80;42.51;93795.50;5065990;28;20024;-80
2023/09/24 09:11:39;;;;;;;31.10;5.68;;;;;;;26.81;42.35;93791.59;5065892;28;20267;-80
2023/09/24 09:14:05;;;;;;;34.30;5.78;;;;;;;26.82;42.02;93782.94;5083632;28;20098;-80
2023/09/24 09:16:31;;;;;;;28.20;6.10;;;;;;;26.82;41.75;93785.69;5066028;28;20318;-81
2023/09/24 09:19:01;;;;;;;34.08;5.57;;;;;;;26.89;42.38;93787.53;5083575;28;20061;-81
2023/09/24 09:21:27;;;;;;;27.02;5.72;;;;;;;26.95;42.53;93793.31;5083766;28;20020;-81
2023/09/24 09:23:53;;;;;;;35.78;9.95;;;;;;;27.02;42.02;93782.97;5083417;28;20250;-81
2023/09/24 09:26:25;;;;;;;21.90;5.03;;;;;;;27.06;41.60;93791.13;5065720;28;20016;-81
2023/09/24 09:28:51;;;;;;;31.15;7.65;;;;;;;27.13;42.28;93796.47;5083376;28;20321;-81
2023/09/24 09:31:16;;;;;;;36.97;6.40;;;;;;;27.24;41.94;93784.56;5083722;28;20091;-81
2023/09/24 09:33:45;;;;;;;38.70;5.95;;;;;;;27.27;42.12;93787.22;5083586;28;20147;-81
2023/09/24 09:36:25;;;;;;;20.73;5.72;;;;;;;27.33;41.34;93782.00;5083251;28;20020;-81
2023/09/24 09:38:52;;;;;;;21.52;5.00;;;;;;;27.37;41.59;93788.94;5083441;28;20016;-80
2023/09/24 09:41:18;;;;;;;20.92;6.40;;;;;;;27.46;40.81;93787.59;5083376;28;20402;-80
2023/09/24 09:43:47;;;;;;;30.13;5.78;;;;;;;27.54;41.15;93794.47;5082484;28;20024;-81
2023/09/24 09:46:18;;;;;;;23.65;5.55;;;;;;;27.64;41.20;93789.97;5083316;28;20302;-80
2023/09/24 09:48:55;;;;;;;31.00;6.33;;;;;;;27.78;41.26;93795.13;5065368;28;20339;-80
2023/09/24 09:51:21;;;;;;;23.40;5.55;;;;;;;27.81;40.67;93800.53;5083007;28;20017;-79
2023/09/24 09:53:48;;;;;;;25.23;6.82;;;;;;;27.89;40.73;93800.41;5065359;28;20027;-79
2023/09/24 09:56:14;;;;;;;35.50;6.97;;;;;;;27.91;40.44;93798.78;5083114;28;20032;-80
2023/09/24 09:58:41;;;;;;;27.55;6.32;;;;;;;28.00;40.46;93795.47;5082774;28;20314;-80
2023/09/24 10:01:07;;;;;;;24.58;5.70;;;;;;;28.05;40.11;93816.09;5082551;28;20024;-80
2023/09/24 10:03:36;;;;;;;21.88;5.80;;;;;;;28.13;40.08;93803.75;5064972;28;20024;-80
2023/09/24 10:06:06;;;;;;;29.25;7.72;;;;;;;28.17;39.83;93807.97;5083089;28;20020;-80
2023/09/24 10:08:43;;;;;;;25.95;5.22;;;;;;;28.23;39.16;93807.44;5082886;28;20091;-80
2023/09/24 10:11:29;;;;;;;23.35;5.50;;;;;;;28.27;39.65;93806.19;5082900;28;20074;-80
2023/09/24 10:13:54;;;;;;;30.05;6.32;;;;;;;28.34;39.95;93807.97;5082053;28;20047;-80
2023/09/24 10:16:26;;;;;;;22.25;7.20;;;;;;;28.42;39.83;93803.88;5082800;28;20016;-80
2023/09/24 10:18:55;;;;;;;26.10;6.22;;;;;;;28.47;39.48;93800.59;5064938;28;20028;-80
2023/09/24 10:21:38;;;;;;;26.55;6.00;;;;;;;28.47;39.39;93797.09;5064920;28;20024;-80
2023/09/24 10:24:09;;;;;;;27.02;7.00;;;;;;;28.46;39.72;93801.81;5082647;28;20021;-80
2023/09/24 10:27:03;;;;;;;20.63;5.00;;;;;;;28.46;39.98;93803.78;5082780;28;20046;-80
2023/09/24 10:29:44;;;;;;;34.47;6.38;;;;;;;28.43;40.04;93799.91;5064734;28;20219;-80
2023/09/24 10:32:13;;;;;;;20.63;4.78;;;;;;;28.34;39.89;93797.03;5082762;28;20091;-80
2023/09/24 10:34:51;;;;;;;17.52;4.40;;;;;;;28.27;39.88;93788.97;5064775;28;20318;-80
2023/09/24 10:37:21;;;;;;;28.42;5.10;;;;;;;28.23;40.30;93791.81;5064851;28;20047;-80
2023/09/24 10:40:04;;;;;;;25.63;5.78;;;;;;;28.22;39.95;93782.03;5082677;28;20044;-80
2023/09/24 10:42:38;;;;;;;20.55;5.38;;;;;;;28.11;39.94;93784.25;5082737;28;20239;-80
2023/09/24 10:45:06;;;;;;;23.30;5.95;;;;;;;28.10;40.55;93786.22;5082464;28;20078;-80
2023/09/24 10:47:34;;;;;;;24.73;5.35;;;;;;;28.12;41.09;93780.31;5064634;28;20029;-80
2023/09/24 10:50:16;;;;;;;20.48;5.30;;;;;;;28.21;41.07;93778.53;5064659;28;20103;-80
2023/09/24 10:52:59;;;;;;;21.15;5.15;;;;;;;28.22;40.27;93773.81;5064358;28;20103;-80
2023/09/24 10:55:28;;;;;;;28.15;5.45;;;;;;;28.26;40.62;93773.72;5064646;28;20223;-80
2023/09/24 10:57:54;;;;;;;21.33;5.05;;;;;;;28.31;39.85;93775.94;5082496;28;20083;-80
2023/09/24 11:00:21;;;;;;;18.95;5.35;;;;;;;28.30;39.66;93764.22;5082580;28;20021;-80
2023/09/24 11:02:58;;;;;;;28.15;6.05;;;;;;;28.29;39.44;93765.44;5082400;28;20028;-80
2023/09/24 11:05:24;;;;;;;31.50;5.28;;;;;;;28.32;39.91;93769.28;5082321;28;20017;-80
2023/09/24 11:07:49;;;;;;;17.80;5.15;;;;;;;28.40;39.46;93760.44;5082339;28;20020;-80
2023/09/24 11:10:23;;;;;;;28.52;7.43;;;;;;;28.50;39.50;93757.91;5082719;28;20062;-80
2023/09/24 11:12:49;;;;;;;22.65;5.53;;;;;;;28.58;39.88;93762.75;5086072;28;20031;-80
2023/09/24 11:15:16;;;;;;;24.23;6.78;;;;;;;28.65;39.95;93756.31;5086404;28;20090;-80
2023/09/24 11:17:44;;;;;;;23.25;5.35;;;;;;;28.70;39.61;93765.97;5086058;28;20031;-80
2023/09/24 11:20:09;;;;;;;19.38;5.10;;;;;;;28.72;39.42;93758.88;5085922;28;20024;-80
2023/09/24 11:22:34;;;;;;;23.23;5.25;;;;;;;28.75;39.24;93755.25;5068181;28;20047;-80
2023/09/24 11:25:07;;;;;;;25.63;4.93;;;;;;;28.83;39.71;93760.56;5085921;28;20031;-80
2023/09/24 11:27:34;;;;;;;22.38;4.53;;;;;;;28.85;38.34;93758.94;5085866;28;20032;-80
2023/09/24 11:30:00;;;;;;;23.30;5.22;;;;;;;28.80;38.14;93756.69;5085847;28;20031;-80